sensor_id;sensor_type;location;lat;lon;timestamp;pressure;altitude;pressure_sealevel;temperature;humidity
61345;BME280;47216;42.656;23.232;2023-05-11T00:01:09;94032.53;;;11.13;75.25
61345;BME280;47216;42.656;23.232;2023-05-11T00:03:37;94035.41;;;11.11;75.18
61345;BME280;47216;42.656;23.232;2023-05-11T00:06:04;94034.59;;;11.11;75.22
61345;BME280;47216;42.656;23.232;2023-05-11T00:08:30;94036.44;;;11.10;75.51
61345;BME280;47216;42.656;23.232;2023-05-11T00:10:57;94039.81;;;11.11;74.96
61345;BME280;47216;42.656;23.232;2023-05-11T00:13:25;94044.06;;;11.17;74.76
61345;BME280;47216;42.656;23.232;2023-05-11T00:15:53;94051.16;;;11.22;74.90
61345;BME280;47216;42.656;23.232;2023-05-11T00:18:20;94046.19;;;11.20;74.56
61345;BME280;47216;42.656;23.232;2023-05-11T00:20:47;94049.38;;;11.27;74.64
61345;BME280;47216;42.656;23.232;2023-05-11T00:23:14;94051.25;;;11.32;74.23
61345;BME280;47216;42.656;23.232;2023-05-11T00:25:41;94046.66;;;11.39;74.18
61345;BME280;47216;42.656;23.232;2023-05-11T00:28:07;94045.91;;;11.44;73.77
61345;BME280;47216;42.656;23.232;2023-05-11T00:30:35;94045.84;;;11.39;73.89
61345;BME280;47216;42.656;23.232;2023-05-11T00:33:03;94052.06;;;11.32;74.04
61345;BME280;47216;42.656;23.232;2023-05-11T00:35:30;94052.53;;;11.29;73.49
61345;BME280;47216;42.656;23.232;2023-05-11T00:37:57;94054.59;;;11.27;72.73
61345;BME280;47216;42.656;23.232;2023-05-11T00:40:23;94050.97;;;11.28;72.53
61345;BME280;47216;42.656;23.232;2023-05-11T00:42:50;94055.28;;;11.18;72.49
61345;BME280;47216;42.656;23.232;2023-05-11T00:45:17;94039.09;;;11.15;72.60
61345;BME280;47216;42.656;23.232;2023-05-11T00:47:44;94046.13;;;11.15;72.69
61345;BME280;47216;42.656;23.232;2023-05-11T00:50:12;94046.09;;;11.10;73.20
61345;BME280;47216;42.656;23.232;2023-05-11T00:52:40;94045.53;;;11.08;73.38
61345;BME280;47216;42.656;23.232;2023-05-11T00:55:08;94047.06;;;11.04;73.41
61345;BME280;47216;42.656;23.232;2023-05-11T00:57:35;94046.50;;;11.02;73.65
61345;BME280;47216;42.656;23.232;2023-05-11T01:00:04;94049.06;;;10.97;73.50
61345;BME280;47216;42.656;23.232;2023-05-11T01:02:32;94040.75;;;11.00;73.87
61345;BME280;47216;42.656;23.232;2023-05-11T01:04:59;94042.84;;;10.98;73.35
61345;BME280;47216;42.656;23.232;2023-05-11T01:07:32;94046.03;;;11.05;73.20
61345;BME280;47216;42.656;23.232;2023-05-11T01:10:05;94050.25;;;11.11;73.01
61345;BME280;47216;42.656;23.232;2023-05-11T01:12:41;94046.44;;;11.19;72.56
61345;BME280;47216;42.656;23.232;2023-05-11T01:15:12;94043.56;;;11.20;72.83
61345;BME280;47216;42.656;23.232;2023-05-11T01:17:45;94045.16;;;11.21;72.74
61345;BME280;47216;42.656;23.232;2023-05-11T01:20:16;94051.94;;;11.22;72.80
61345;BME280;47216;42.656;23.232;2023-05-11T01:23:06;94057.75;;;11.29;72.92
61345;BME280;47216;42.656;23.232;2023-05-11T01:25:50;94053.88;;;11.32;72.93
61345;BME280;47216;42.656;23.232;2023-05-11T01:28:42;94052.53;;;11.29;72.37
61345;BME280;47216;42.656;23.232;2023-05-11T01:31:14;94047.22;;;11.19;72.91
61345;BME280;47216;42.656;23.232;2023-05-11T01:33:48;94046.63;;;11.12;73.20
61345;BME280;47216;42.656;23.232;2023-05-11T01:36:18;94054.41;;;11.07;73.39
61345;BME280;47216;42.656;23.232;2023-05-11T01:38:47;94057.84;;;11.12;73.00
61345;BME280;47216;42.656;23.232;2023-05-11T01:41:17;94056.28;;;11.11;72.71
61345;BME280;47216;42.656;23.232;2023-05-11T01:43:52;94055.97;;;11.08;73.12
61345;BME280;47216;42.656;23.232;2023-05-11T01:46:24;94056.47;;;11.05;73.06
61345;BME280;47216;42.656;23.232;2023-05-11T01:48:55;94059.56;;;11.02;73.32
61345;BME280;47216;42.656;23.232;2023-05-11T01:51:25;94052.22;;;10.99;73.05
61345;BME280;47216;42.656;23.232;2023-05-11T01:53:53;94050.91;;;10.96;73.27
61345;BME280;47216;42.656;23.232;2023-05-11T01:56:22;94054.78;;;10.93;72.92
61345;BME280;47216;42.656;23.232;2023-05-11T01:58:51;94042.66;;;10.82;72.90
61345;BME280;47216;42.656;23.232;2023-05-11T02:01:20;94054.19;;;10.86;73.28
61345;BME280;47216;42.656;23.232;2023-05-11T02:03:50;94047.63;;;10.84;73.31
61345;BME280;47216;42.656;23.232;2023-05-11T02:06:19;94055.75;;;10.87;73.27
61345;BME280;47216;42.656;23.232;2023-05-11T02:08:49;94052.00;;;10.78;73.43
61345;BME280;47216;42.656;23.232;2023-05-11T02:11:17;94050.44;;;10.77;73.12
61345;BME280;47216;42.656;23.232;2023-05-11T02:13:45;94050.59;;;10.70;73.71
61345;BME280;47216;42.656;23.232;2023-05-11T02:16:14;94043.81;;;10.69;73.48
61345;BME280;47216;42.656;23.232;2023-05-11T02:18:43;94047.75;;;10.72;73.72
61345;BME280;47216;42.656;23.232;2023-05-11T02:21:13;94044.84;;;10.68;73.39
61345;BME280;47216;42.656;23.232;2023-05-11T02:23:42;94046.66;;;10.68;73.50
61345;BME280;47216;42.656;23.232;2023-05-11T02:26:11;94044.59;;;10.70;73.15
61345;BME280;47216;42.656;23.232;2023-05-11T02:28:41;94045.63;;;10.69;73.04
61345;BME280;47216;42.656;23.232;2023-05-11T02:31:13;94051.38;;;10.71;72.83
61345;BME280;47216;42.656;23.232;2023-05-11T02:33:46;94037.81;;;10.69;73.33
61345;BME280;47216;42.656;23.232;2023-05-11T02:36:18;94040.78;;;10.78;72.85
61345;BME280;47216;42.656;23.232;2023-05-11T02:38:47;94040.22;;;10.76;73.24
61345;BME280;47216;42.656;23.232;2023-05-11T02:41:22;94036.78;;;10.70;73.07
61345;BME280;47216;42.656;23.232;2023-05-11T02:43:51;94040.97;;;10.71;72.89
61345;BME280;47216;42.656;23.232;2023-05-11T02:46:22;94045.63;;;10.69;72.64
61345;BME280;47216;42.656;23.232;2023-05-11T02:48:52;94045.13;;;10.72;73.35
61345;BME280;47216;42.656;23.232;2023-05-11T02:51:25;94045.69;;;10.74;73.18
61345;BME280;47216;42.656;23.232;2023-05-11T02:53:55;94045.22;;;10.77;73.02
61345;BME280;47216;42.656;23.232;2023-05-11T02:56:23;94043.16;;;10.79;72.74
61345;BME280;47216;42.656;23.232;2023-05-11T02:58:50;94033.19;;;10.76;72.56
61345;BME280;47216;42.656;23.232;2023-05-11T03:01:17;94033.69;;;10.73;72.83
61345;BME280;47216;42.656;23.232;2023-05-11T03:03:45;94037.31;;;10.72;72.97
61345;BME280;47216;42.656;23.232;2023-05-11T03:06:11;94034.78;;;10.77;72.62
61345;BME280;47216;42.656;23.232;2023-05-11T03:08:40;94038.78;;;10.85;72.33
61345;BME280;47216;42.656;23.232;2023-05-11T03:11:08;94036.47;;;10.88;71.74
61345;BME280;47216;42.656;23.232;2023-05-11T03:13:37;94039.91;;;10.94;72.02
61345;BME280;47216;42.656;23.232;2023-05-11T03:16:05;94043.63;;;10.98;71.57
61345;BME280;47216;42.656;23.232;2023-05-11T03:18:33;94048.09;;;11.03;71.78
61345;BME280;47216;42.656;23.232;2023-05-11T03:21:00;94040.47;;;10.96;71.10
61345;BME280;47216;42.656;23.232;2023-05-11T03:23:28;94049.75;;;10.87;69.85
61345;BME280;47216;42.656;23.232;2023-05-11T03:25:57;94057.81;;;10.85;68.12
61345;BME280;47216;42.656;23.232;2023-05-11T03:28:25;94055.03;;;10.70;67.11
61345;BME280;47216;42.656;23.232;2023-05-11T03:30:53;94053.75;;;10.72;66.59
61345;BME280;47216;42.656;23.232;2023-05-11T03:33:20;94047.75;;;10.72;66.69
61345;BME280;47216;42.656;23.232;2023-05-11T03:35:49;94050.44;;;10.77;66.35
61345;BME280;47216;42.656;23.232;2023-05-11T03:38:17;94054.06;;;10.76;66.74
61345;BME280;47216;42.656;23.232;2023-05-11T03:40:46;94054.09;;;10.81;65.84
61345;BME280;47216;42.656;23.232;2023-05-11T03:43:17;94054.53;;;10.73;65.91
61345;BME280;47216;42.656;23.232;2023-05-11T03:45:45;94064.13;;;10.67;66.44
61345;BME280;47216;42.656;23.232;2023-05-11T03:48:14;94058.06;;;10.62;66.73
61345;BME280;47216;42.656;23.232;2023-05-11T03:50:42;94064.84;;;10.63;66.57
61345;BME280;47216;42.656;23.232;2023-05-11T03:53:09;94069.09;;;10.69;66.77
61345;BME280;47216;42.656;23.232;2023-05-11T03:55:36;94067.03;;;10.71;65.79
61345;BME280;47216;42.656;23.232;2023-05-11T03:58:05;94065.03;;;10.56;65.79
61345;BME280;47216;42.656;23.232;2023-05-11T04:00:36;94065.50;;;10.53;66.05
61345;BME280;47216;42.656;23.232;2023-05-11T04:03:04;94069.31;;;10.45;65.93
61345;BME280;47216;42.656;23.232;2023-05-11T04:05:31;94069.00;;;10.42;65.93
61345;BME280;47216;42.656;23.232;2023-05-11T04:07:58;94068.22;;;10.41;66.28
61345;BME280;47216;42.656;23.232;2023-05-11T04:10:25;94069.97;;;10.36;66.01
61345;BME280;47216;42.656;23.232;2023-05-11T04:12:52;94078.94;;;10.28;66.70
61345;BME280;47216;42.656;23.232;2023-05-11T04:15:19;94076.94;;;10.13;66.75
61345;BME280;47216;42.656;23.232;2023-05-11T04:17:47;94066.34;;;10.20;66.48
61345;BME280;47216;42.656;23.232;2023-05-11T04:20:14;94075.25;;;10.24;66.39
61345;BME280;47216;42.656;23.232;2023-05-11T04:22:41;94072.97;;;10.10;66.94
61345;BME280;47216;42.656;23.232;2023-05-11T04:25:08;94071.22;;;10.16;66.40
61345;BME280;47216;42.656;23.232;2023-05-11T04:27:35;94071.78;;;10.18;66.47
61345;BME280;47216;42.656;23.232;2023-05-11T04:30:02;94076.75;;;10.20;66.14
61345;BME280;47216;42.656;23.232;2023-05-11T04:32:28;94079.84;;;10.17;67.03
61345;BME280;47216;42.656;23.232;2023-05-11T04:34:57;94087.50;;;10.06;67.20
61345;BME280;47216;42.656;23.232;2023-05-11T04:37:23;94090.59;;;10.03;67.08
61345;BME280;47216;42.656;23.232;2023-05-11T04:39:50;94085.78;;;10.12;67.20
61345;BME280;47216;42.656;23.232;2023-05-11T04:42:17;94080.31;;;10.14;66.87
61345;BME280;47216;42.656;23.232;2023-05-11T04:44:44;94083.97;;;10.13;67.66
61345;BME280;47216;42.656;23.232;2023-05-11T04:47:10;94090.34;;;10.05;67.76
61345;BME280;47216;42.656;23.232;2023-05-11T04:49:37;94089.56;;;10.04;66.91
61345;BME280;47216;42.656;23.232;2023-05-11T04:52:06;94091.16;;;10.05;67.02
61345;BME280;47216;42.656;23.232;2023-05-11T04:54:33;94089.88;;;9.91;67.74
61345;BME280;47216;42.656;23.232;2023-05-11T04:57:01;94097.94;;;9.89;68.07
61345;BME280;47216;42.656;23.232;2023-05-11T04:59:27;94099.19;;;9.87;69.09
61345;BME280;47216;42.656;23.232;2023-05-11T05:01:54;94104.88;;;10.01;67.78
61345;BME280;47216;42.656;23.232;2023-05-11T05:04:21;94101.81;;;9.87;68.21
61345;BME280;47216;42.656;23.232;2023-05-11T05:06:48;94103.44;;;9.93;68.60
61345;BME280;47216;42.656;23.232;2023-05-11T05:09:16;94106.94;;;9.99;68.30
61345;BME280;47216;42.656;23.232;2023-05-11T05:11:43;94105.69;;;9.84;68.73
61345;BME280;47216;42.656;23.232;2023-05-11T05:14:10;94113.25;;;10.20;71.68
61345;BME280;47216;42.656;23.232;2023-05-11T05:16:37;94107.56;;;10.06;68.29
61345;BME280;47216;42.656;23.232;2023-05-11T05:19:03;94109.75;;;9.97;69.37
61345;BME280;47216;42.656;23.232;2023-05-11T05:21:30;94114.69;;;9.94;69.55
61345;BME280;47216;42.656;23.232;2023-05-11T05:23:58;94104.47;;;9.92;68.52
61345;BME280;47216;42.656;23.232;2023-05-11T05:26:26;94108.50;;;10.00;69.61
61345;BME280;47216;42.656;23.232;2023-05-11T05:28:53;94109.28;;;9.83;69.27
61345;BME280;47216;42.656;23.232;2023-05-11T05:31:20;94102.66;;;9.93;69.85
61345;BME280;47216;42.656;23.232;2023-05-11T05:33:46;94110.25;;;9.94;68.93
61345;BME280;47216;42.656;23.232;2023-05-11T05:36:14;94104.47;;;9.92;69.64
61345;BME280;47216;42.656;23.232;2023-05-11T05:38:41;94106.75;;;9.72;70.11
61345;BME280;47216;42.656;23.232;2023-05-11T05:41:08;94106.19;;;9.86;70.55
61345;BME280;47216;42.656;23.232;2023-05-11T05:43:36;94103.94;;;9.90;69.01
61345;BME280;47216;42.656;23.232;2023-05-11T05:46:03;94111.25;;;9.76;70.48
61345;BME280;47216;42.656;23.232;2023-05-11T05:48:30;94115.59;;;9.71;70.59
61345;BME280;47216;42.656;23.232;2023-05-11T05:50:57;94114.72;;;9.82;70.45
61345;BME280;47216;42.656;23.232;2023-05-11T05:53:24;94113.41;;;9.96;69.93
61345;BME280;47216;42.656;23.232;2023-05-11T05:55:51;94120.19;;;9.80;70.38
61345;BME280;47216;42.656;23.232;2023-05-11T05:58:18;94119.69;;;9.83;70.38
61345;BME280;47216;42.656;23.232;2023-05-11T06:00:46;94115.47;;;9.94;69.68
61345;BME280;47216;42.656;23.232;2023-05-11T06:03:13;94117.03;;;9.95;69.57
61345;BME280;47216;42.656;23.232;2023-05-11T06:05:40;94121.31;;;10.01;69.04
61345;BME280;47216;42.656;23.232;2023-05-11T06:08:07;94123.19;;;9.89;69.02
61345;BME280;47216;42.656;23.232;2023-05-11T06:10:34;94121.03;;;9.86;68.60
61345;BME280;47216;42.656;23.232;2023-05-11T06:13:00;94131.06;;;9.77;69.12
61345;BME280;47216;42.656;23.232;2023-05-11T06:15:27;94139.22;;;9.52;69.36
61345;BME280;47216;42.656;23.232;2023-05-11T06:17:55;94145.25;;;9.70;69.61
61345;BME280;47216;42.656;23.232;2023-05-11T06:20:22;94136.25;;;9.60;69.48
61345;BME280;47216;42.656;23.232;2023-05-11T06:22:49;94141.53;;;9.65;69.98
61345;BME280;47216;42.656;23.232;2023-05-11T06:25:15;94144.59;;;9.62;69.35
61345;BME280;47216;42.656;23.232;2023-05-11T06:27:42;94147.25;;;9.51;70.44
61345;BME280;47216;42.656;23.232;2023-05-11T06:30:10;94143.97;;;9.55;70.39
61345;BME280;47216;42.656;23.232;2023-05-11T06:32:37;94145.66;;;9.50;69.73
61345;BME280;47216;42.656;23.232;2023-05-11T06:35:06;94147.56;;;9.54;69.24
61345;BME280;47216;42.656;23.232;2023-05-11T06:37:32;94149.81;;;9.62;70.14
61345;BME280;47216;42.656;23.232;2023-05-11T06:39:59;94150.56;;;9.46;70.13
61345;BME280;47216;42.656;23.232;2023-05-11T06:42:26;94142.94;;;9.56;71.15
61345;BME280;47216;42.656;23.232;2023-05-11T06:44:53;94144.63;;;9.79;70.64
61345;BME280;47216;42.656;23.232;2023-05-11T06:47:20;94148.63;;;9.99;69.01
61345;BME280;47216;42.656;23.232;2023-05-11T06:49:47;94144.03;;;9.89;69.27
61345;BME280;47216;42.656;23.232;2023-05-11T06:52:15;94150.66;;;9.97;69.42
61345;BME280;47216;42.656;23.232;2023-05-11T06:54:42;94135.66;;;9.87;68.85
61345;BME280;47216;42.656;23.232;2023-05-11T06:57:08;94138.72;;;9.84;69.41
61345;BME280;47216;42.656;23.232;2023-05-11T06:59:35;94144.03;;;9.89;69.60
61345;BME280;47216;42.656;23.232;2023-05-11T07:02:02;94142.06;;;9.96;69.83
61345;BME280;47216;42.656;23.232;2023-05-11T07:04:29;94148.91;;;10.02;69.14
61345;BME280;47216;42.656;23.232;2023-05-11T07:06:56;94130.84;;;9.96;69.13
61345;BME280;47216;42.656;23.232;2023-05-11T07:09:24;94142.44;;;10.05;68.45
61345;BME280;47216;42.656;23.232;2023-05-11T07:11:51;94145.13;;;9.93;69.00
61345;BME280;47216;42.656;23.232;2023-05-11T07:14:18;94151.78;;;10.18;68.57
61345;BME280;47216;42.656;23.232;2023-05-11T07:16:44;94150.47;;;10.32;68.99
61345;BME280;47216;42.656;23.232;2023-05-11T07:19:12;94152.81;;;10.17;69.06
61345;BME280;47216;42.656;23.232;2023-05-11T07:21:39;94154.31;;;10.13;68.49
61345;BME280;47216;42.656;23.232;2023-05-11T07:24:06;94155.72;;;10.20;68.75
61345;BME280;47216;42.656;23.232;2023-05-11T07:26:34;94157.00;;;10.18;68.12
61345;BME280;47216;42.656;23.232;2023-05-11T07:29:04;94153.75;;;10.10;68.30
61345;BME280;47216;42.656;23.232;2023-05-11T07:31:31;94137.06;;;10.12;68.34
61345;BME280;47216;42.656;23.232;2023-05-11T07:34:00;94158.84;;;10.34;68.31
61345;BME280;47216;42.656;23.232;2023-05-11T07:36:28;94153.31;;;10.30;68.06
61345;BME280;47216;42.656;23.232;2023-05-11T07:38:55;94168.69;;;10.32;68.55
61345;BME280;47216;42.656;23.232;2023-05-11T07:41:23;94159.22;;;10.26;68.00
61345;BME280;47216;42.656;23.232;2023-05-11T07:43:52;94165.09;;;10.33;68.28
61345;BME280;47216;42.656;23.232;2023-05-11T07:46:19;94159.44;;;10.24;67.89
61345;BME280;47216;42.656;23.232;2023-05-11T07:48:46;94166.16;;;10.37;67.97
61345;BME280;47216;42.656;23.232;2023-05-11T07:51:13;94165.22;;;10.43;67.50
61345;BME280;47216;42.656;23.232;2023-05-11T07:53:40;94169.50;;;10.49;67.44
61345;BME280;47216;42.656;23.232;2023-05-11T07:56:06;94161.75;;;10.55;67.46
61345;BME280;47216;42.656;23.232;2023-05-11T07:58:35;94167.84;;;10.43;67.95
61345;BME280;47216;42.656;23.232;2023-05-11T08:01:03;94161.19;;;10.52;67.28
61345;BME280;47216;42.656;23.232;2023-05-11T08:03:30;94158.25;;;10.66;67.93
61345;BME280;47216;42.656;23.232;2023-05-11T08:05:57;94168.59;;;10.78;66.77
61345;BME280;47216;42.656;23.232;2023-05-11T08:08:24;94170.13;;;10.57;66.03
61345;BME280;47216;42.656;23.232;2023-05-11T08:10:51;94166.63;;;10.68;65.88
61345;BME280;47216;42.656;23.232;2023-05-11T08:13:18;94162.88;;;10.81;66.75
61345;BME280;47216;42.656;23.232;2023-05-11T08:15:48;94169.09;;;10.97;66.20
61345;BME280;47216;42.656;23.232;2023-05-11T08:18:17;94168.69;;;11.05;65.78
61345;BME280;47216;42.656;23.232;2023-05-11T08:20:43;94167.88;;;10.82;65.61
61345;BME280;47216;42.656;23.232;2023-05-11T08:23:14;94160.09;;;10.87;65.15
61345;BME280;47216;42.656;23.232;2023-05-11T08:25:48;94146.03;;;10.88;65.31
61345;BME280;47216;42.656;23.232;2023-05-11T08:28:15;94141.56;;;11.06;65.19
61345;BME280;47216;42.656;23.232;2023-05-11T08:30:42;94165.03;;;11.06;65.03
61345;BME280;47216;42.656;23.232;2023-05-11T08:33:09;94165.69;;;11.18;64.25
61345;BME280;47216;42.656;23.232;2023-05-11T08:35:39;94177.59;;;11.09;64.71
61345;BME280;47216;42.656;23.232;2023-05-11T08:38:05;94172.88;;;11.06;64.46
61345;BME280;47216;42.656;23.232;2023-05-11T08:40:32;94170.03;;;11.07;64.89
61345;BME280;47216;42.656;23.232;2023-05-11T08:43:03;94165.75;;;11.01;64.74
61345;BME280;47216;42.656;23.232;2023-05-11T08:45:33;94154.09;;;11.09;64.38
61345;BME280;47216;42.656;23.232;2023-05-11T08:48:03;94155.25;;;11.18;64.63
61345;BME280;47216;42.656;23.232;2023-05-11T08:50:30;94169.91;;;11.19;63.91
61345;BME280;47216;42.656;23.232;2023-05-11T08:52:59;94161.63;;;11.27;64.40
61345;BME280;47216;42.656;23.232;2023-05-11T08:55:26;94173.63;;;11.23;64.16
61345;BME280;47216;42.656;23.232;2023-05-11T08:57:54;94152.22;;;11.26;64.07
61345;BME280;47216;42.656;23.232;2023-05-11T09:00:22;94162.72;;;11.53;63.82
61345;BME280;47216;42.656;23.232;2023-05-11T09:02:54;94141.59;;;11.33;63.33
61345;BME280;47216;42.656;23.232;2023-05-11T09:05:22;94150.22;;;11.33;64.28
61345;BME280;47216;42.656;23.232;2023-05-11T09:07:51;94147.75;;;11.44;64.00
61345;BME280;47216;42.656;23.232;2023-05-11T09:10:20;94150.22;;;11.55;63.79
61345;BME280;47216;42.656;23.232;2023-05-11T09:12:47;94127.44;;;11.51;63.73
61345;BME280;47216;42.656;23.232;2023-05-11T09:15:13;94132.03;;;11.66;63.42
61345;BME280;47216;42.656;23.232;2023-05-11T09:17:40;94121.34;;;11.67;63.33
61345;BME280;47216;42.656;23.232;2023-05-11T09:20:08;94155.66;;;11.54;64.01
61345;BME280;47216;42.656;23.232;2023-05-11T09:22:43;94162.03;;;11.63;63.45
61345;BME280;47216;42.656;23.232;2023-05-11T09:25:11;94164.47;;;11.48;63.57
61345;BME280;47216;42.656;23.232;2023-05-11T09:27:45;94141.72;;;11.43;63.37
61345;BME280;47216;42.656;23.232;2023-05-11T09:30:14;94148.75;;;11.43;63.25
61345;BME280;47216;42.656;23.232;2023-05-11T09:32:49;94154.84;;;11.26;63.55
61345;BME280;47216;42.656;23.232;2023-05-11T09:35:21;94158.31;;;11.10;64.12
61345;BME280;47216;42.656;23.232;2023-05-11T09:37:59;94153.16;;;11.37;64.68
61345;BME280;47216;42.656;23.232;2023-05-11T09:40:26;94157.97;;;11.50;64.17
61345;BME280;47216;42.656;23.232;2023-05-11T09:42:54;94161.44;;;11.56;64.03
61345;BME280;47216;42.656;23.232;2023-05-11T09:45:34;94151.00;;;11.56;64.27
61345;BME280;47216;42.656;23.232;2023-05-11T09:48:01;94160.16;;;11.59;64.16
61345;BME280;47216;42.656;23.232;2023-05-11T09:50:33;94147.28;;;11.52;63.97
61345;BME280;47216;42.656;23.232;2023-05-11T09:53:00;94137.75;;;11.63;64.24
61345;BME280;47216;42.656;23.232;2023-05-11T09:55:27;94135.59;;;11.60;64.69
61345;BME280;47216;42.656;23.232;2023-05-11T09:57:56;94140.56;;;11.56;65.94
61345;BME280;47216;42.656;23.232;2023-05-11T10:00:24;94137.44;;;11.59;65.71
61345;BME280;47216;42.656;23.232;2023-05-11T10:03:01;94139.47;;;11.79;64.23
61345;BME280;47216;42.656;23.232;2023-05-11T10:05:29;94134.25;;;11.79;64.54
61345;BME280;47216;42.656;23.232;2023-05-11T10:07:57;94123.41;;;11.65;64.19
61345;BME280;47216;42.656;23.232;2023-05-11T10:10:26;94130.97;;;11.67;65.33
61345;BME280;47216;42.656;23.232;2023-05-11T10:12:56;94126.75;;;11.61;64.57
61345;BME280;47216;42.656;23.232;2023-05-11T10:15:25;94121.41;;;11.77;65.30
61345;BME280;47216;42.656;23.232;2023-05-11T10:17:53;94123.00;;;11.78;65.01
61345;BME280;47216;42.656;23.232;2023-05-11T10:20:21;94116.41;;;11.98;64.82
61345;BME280;47216;42.656;23.232;2023-05-11T10:22:50;94113.75;;;11.93;64.63
61345;BME280;47216;42.656;23.232;2023-05-11T10:25:19;94117.66;;;11.90;64.96
61345;BME280;47216;42.656;23.232;2023-05-11T10:27:47;94109.56;;;11.92;64.80
61345;BME280;47216;42.656;23.232;2023-05-11T10:30:16;94113.81;;;12.03;64.32
61345;BME280;47216;42.656;23.232;2023-05-11T10:32:43;94113.66;;;12.15;64.78
61345;BME280;47216;42.656;23.232;2023-05-11T10:35:11;94111.25;;;12.08;64.52
61345;BME280;47216;42.656;23.232;2023-05-11T10:37:39;94107.00;;;11.97;64.22
61345;BME280;47216;42.656;23.232;2023-05-11T10:40:08;94102.19;;;12.21;64.19
61345;BME280;47216;42.656;23.232;2023-05-11T10:42:54;94109.06;;;12.27;64.93
61345;BME280;47216;42.656;23.232;2023-05-11T10:45:38;94097.78;;;12.27;64.54
61345;BME280;47216;42.656;23.232;2023-05-11T10:48:28;94100.50;;;12.42;63.82
61345;BME280;47216;42.656;23.232;2023-05-11T10:51:15;94105.78;;;12.47;63.90
61345;BME280;47216;42.656;23.232;2023-05-11T10:54:04;94108.47;;;12.63;63.39
61345;BME280;47216;42.656;23.232;2023-05-11T10:56:54;94105.22;;;12.45;63.20
61345;BME280;47216;42.656;23.232;2023-05-11T11:00:00;94105.44;;;12.76;63.36
61345;BME280;47216;42.656;23.232;2023-05-11T11:02:36;94110.69;;;12.81;62.89
61345;BME280;47216;42.656;23.232;2023-05-11T11:05:04;94107.84;;;12.88;62.60
61345;BME280;47216;42.656;23.232;2023-05-11T11:07:55;94105.88;;;12.68;61.81
61345;BME280;47216;42.656;23.232;2023-05-11T11:10:31;94103.25;;;12.63;62.64
61345;BME280;47216;42.656;23.232;2023-05-11T11:13:03;94100.41;;;12.69;62.81
61345;BME280;47216;42.656;23.232;2023-05-11T11:16:07;94098.66;;;12.85;61.74
61345;BME280;47216;42.656;23.232;2023-05-11T11:18:35;94085.78;;;12.73;62.70
61345;BME280;47216;42.656;23.232;2023-05-11T11:21:03;94101.31;;;12.90;61.62
61345;BME280;47216;42.656;23.232;2023-05-11T11:23:43;94097.59;;;12.81;61.58
61345;BME280;47216;42.656;23.232;2023-05-11T11:26:11;94094.53;;;12.99;62.09
61345;BME280;47216;42.656;23.232;2023-05-11T11:29:10;94094.00;;;12.97;61.68
61345;BME280;47216;42.656;23.232;2023-05-11T11:31:38;94089.88;;;13.17;60.86
61345;BME280;47216;42.656;23.232;2023-05-11T11:34:35;94091.47;;;13.18;61.17
61345;BME280;47216;42.656;23.232;2023-05-11T11:37:02;94090.81;;;12.90;61.12
61345;BME280;47216;42.656;23.232;2023-05-11T11:39:45;94087.47;;;13.00;61.53
61345;BME280;47216;42.656;23.232;2023-05-11T11:42:15;94075.19;;;13.06;61.61
61345;BME280;47216;42.656;23.232;2023-05-11T11:44:44;94088.94;;;13.33;61.76
61345;BME280;47216;42.656;23.232;2023-05-11T11:47:12;94088.84;;;13.23;60.81
61345;BME280;47216;42.656;23.232;2023-05-11T11:49:42;94086.44;;;13.01;60.81
61345;BME280;47216;42.656;23.232;2023-05-11T11:52:10;94079.53;;;12.79;62.25
61345;BME280;47216;42.656;23.232;2023-05-11T11:54:38;94091.09;;;12.94;62.05
61345;BME280;47216;42.656;23.232;2023-05-11T12:00:09;94088.41;;;12.78;61.15
61345;BME280;47216;42.656;23.232;2023-05-11T12:02:39;94081.69;;;12.93;60.69
61345;BME280;47216;42.656;23.232;2023-05-11T12:05:11;94079.25;;;12.76;61.51
61345;BME280;47216;42.656;23.232;2023-05-11T12:07:41;94080.63;;;12.94;61.72
61345;BME280;47216;42.656;23.232;2023-05-11T12:10:08;94084.94;;;12.63;61.91
61345;BME280;47216;42.656;23.232;2023-05-11T12:12:38;94075.31;;;12.73;61.50
61345;BME280;47216;42.656;23.232;2023-05-11T12:15:07;94076.59;;;12.71;61.16
61345;BME280;47216;42.656;23.232;2023-05-11T12:17:37;94070.28;;;12.61;61.74
61345;BME280;47216;42.656;23.232;2023-05-11T12:20:13;94071.34;;;12.71;61.43
61345;BME280;47216;42.656;23.232;2023-05-11T12:22:41;94071.91;;;12.73;61.04
61345;BME280;47216;42.656;23.232;2023-05-11T12:25:09;94070.84;;;12.69;62.29
61345;BME280;47216;42.656;23.232;2023-05-11T12:27:46;94057.16;;;12.51;61.61
61345;BME280;47216;42.656;23.232;2023-05-11T12:30:18;94061.38;;;12.57;62.03
61345;BME280;47216;42.656;23.232;2023-05-11T12:32:46;94063.69;;;12.54;61.79
61345;BME280;47216;42.656;23.232;2023-05-11T12:35:21;94063.50;;;12.66;61.55
61345;BME280;47216;42.656;23.232;2023-05-11T12:37:47;94048.31;;;12.63;61.19
61345;BME280;47216;42.656;23.232;2023-05-11T12:40:14;94061.84;;;12.49;61.71
61345;BME280;47216;42.656;23.232;2023-05-11T12:42:48;94053.19;;;12.44;62.23
61345;BME280;47216;42.656;23.232;2023-05-11T12:45:20;94047.09;;;12.33;62.11
61345;BME280;47216;42.656;23.232;2023-05-11T12:47:48;94049.28;;;12.46;62.57
61345;BME280;47216;42.656;23.232;2023-05-11T12:50:17;94055.63;;;12.60;61.90
61345;BME280;47216;42.656;23.232;2023-05-11T12:52:44;94035.44;;;12.51;61.41
61345;BME280;47216;42.656;23.232;2023-05-11T12:55:13;94042.84;;;12.64;61.79
61345;BME280;47216;42.656;23.232;2023-05-11T12:57:42;94034.66;;;12.50;61.81
61345;BME280;47216;42.656;23.232;2023-05-11T13:00:10;94039.59;;;12.47;62.14
61345;BME280;47216;42.656;23.232;2023-05-11T13:02:49;94025.75;;;12.46;62.10
61345;BME280;47216;42.656;23.232;2023-05-11T13:05:18;94030.19;;;12.46;62.29
61345;BME280;47216;42.656;23.232;2023-05-11T13:07:56;94027.91;;;12.59;62.40